Time;durP1;ratioP1;P1;durP2;ratioP2;P2;SDS_P1;SDS_P2;PMS_P1;PMS_P2;Temp;Humidity;BMP_temperature;BMP_pressure;BME280_temperature;BME280_humidity;BME280_pressure;Samples;Min_cycle;Max_cycle;Signal;HPM_P1;HPM_P2
2023/08/14 00:01:01;;;;;;;11.10;5.85;;;;;;;20.26;nan;95614.59;5070795;28;20032;-81
2023/08/14 00:03:26;;;;;;;7.32;5.65;;;;;;;20.52;nan;95655.69;5073824;28;20486;-81
2023/08/14 00:05:52;;;;;;;10.30;5.35;;;;;;;20.45;nan;95628.47;5071314;28;20028;-81
2023/08/14 00:08:19;;;;;;;11.80;5.53;;;;;;;20.26;nan;95601.13;5069697;28;20063;-81
2023/08/14 00:10:44;;;;;;;12.80;5.47;;;;;;;20.48;nan;95637.81;5071529;28;20448;-81
2023/08/14 00:13:10;;;;;;;12.75;5.13;;;;;;;20.62;nan;95663.41;5069215;28;20035;-81
2023/08/14 00:15:36;;;;;;;8.38;4.63;;;;;;;20.56;nan;95666.63;5071684;28;20045;-81
2023/08/14 00:18:02;;;;;;;10.13;5.60;;;;;;;20.44;nan;95637.69;5072284;28;20024;-81
2023/08/14 00:20:27;;;;;;;10.40;5.32;;;;;;;20.47;nan;95637.03;5071420;28;20474;-81
2023/08/14 00:22:53;;;;;;;7.05;5.07;;;;;;;20.59;nan;95665.97;5076522;28;20036;-80
2023/08/14 00:25:18;;;;;;;9.95;5.40;;;;;;;20.52;nan;95669.16;5072385;28;20036;-81
2023/08/14 00:27:43;;;;;;;7.25;5.38;;;;;;;20.32;nan;95627.56;5072084;28;20469;-81
2023/08/14 00:30:09;;;;;;;10.05;5.43;;;;;;;20.57;nan;95666.31;5070474;28;20027;-81
2023/08/14 00:32:35;;;;;;;15.48;5.70;;;;;;;20.37;nan;95632.00;5071867;28;20040;-81
2023/08/14 00:35:00;;;;;;;9.65;5.07;;;;;;;20.60;nan;95668.31;5072325;28;20513;-81
2023/08/14 00:37:43;;;;;;;9.98;5.35;;;;;;;20.53;nan;95651.88;5072911;28;20490;-81
2023/08/14 00:40:10;;;;;;;8.10;5.13;;;;;;;20.27;nan;95618.88;5069234;28;20135;-81
2023/08/14 00:42:42;;;;;;;8.10;4.70;;;;;;;20.18;nan;95620.81;5072810;28;20037;-81
2023/08/14 00:45:09;;;;;;;12.48;4.68;;;;;;;20.10;nan;95614.34;5102313;28;20151;-81
2023/08/14 00:47:36;;;;;;;8.27;4.45;;;;;;;20.45;nan;95647.31;5072116;28;20040;-81
2023/08/14 00:50:06;;;;;;;6.75;4.82;;;;;;;20.49;nan;95660.94;5072087;28;20031;-81
2023/08/14 00:52:35;;;;;;;6.35;4.70;;;;;;;20.20;nan;95602.44;5072554;28;20036;-81
2023/08/14 00:55:08;;;;;;;8.60;5.60;;;;;;;20.51;nan;95646.03;5074329;28;20110;-81
2023/08/14 00:57:35;;;;;;;6.93;5.25;;;;;;;20.45;nan;95630.38;5076769;28;20103;-81
2023/08/14 01:00:03;;;;;;;6.85;4.72;;;;;;;20.68;nan;95654.03;5078318;28;20512;-81
2023/08/14 01:02:29;;;;;;;10.48;5.57;;;;;;;20.49;nan;95632.09;5075028;28;20047;-81
2023/08/14 01:04:54;;;;;;;15.07;4.90;;;;;;;20.66;nan;95663.56;5072740;28;20024;-81
2023/08/14 01:07:20;;;;;;;6.75;5.00;;;;;;;20.52;nan;95650.28;5072900;28;20024;-81
2023/08/14 01:09:47;;;;;;;7.80;4.60;;;;;;;20.47;nan;95647.00;5072106;28;20035;-81
2023/08/14 01:12:29;;;;;;;8.98;4.47;;;;;;;20.54;nan;95660.75;5071245;28;20040;-81
2023/08/14 01:15:01;;;;;;;7.55;4.35;;;;;;;20.22;nan;95649.44;5070682;28;20048;-81
2023/08/14 01:17:28;;;;;;;6.68;4.50;;;;;;;20.19;nan;95633.97;5073118;28;20527;-81
2023/08/14 01:19:57;;;;;;;8.18;4.53;;;;;;;20.32;nan;95661.78;5072375;28;20062;-81
2023/08/14 01:22:38;;;;;;;14.10;5.13;;;;;;;20.32;nan;95659.88;5070687;28;20142;-81
2023/08/14 01:25:24;;;;;;;7.05;4.82;;;;;;;20.13;nan;95656.78;5072147;28;20494;-81
2023/08/14 01:27:50;;;;;;;6.93;4.57;;;;;;;19.93;nan;95617.88;5105653;28;20522;-81
2023/08/14 01:30:16;;;;;;;10.13;5.20;;;;;;;19.81;nan;95606.22;5075971;28;20047;-81
2023/08/14 01:32:42;;;;;;;4.85;3.75;;;;;;;19.89;nan;95627.72;5074104;28;20035;-81
2023/08/14 01:35:08;;;;;;;6.75;4.05;;;;;;;19.99;nan;95629.25;5073501;28;20441;-81
2023/08/14 01:37:56;;;;;;;7.13;4.13;;;;;;;20.06;nan;95656.50;5074196;28;20037;-81
2023/08/14 01:40:45;;;;;;;9.50;4.57;;;;;;;19.98;nan;95651.94;5073756;28;20119;-81
2023/08/14 01:43:14;;;;;;;7.10;4.65;;;;;;;19.92;nan;95650.50;5068936;28;20074;-81
2023/08/14 01:45:41;;;;;;;7.50;4.55;;;;;;;19.71;nan;95618.09;5074739;28;20028;-81
2023/08/14 01:48:08;;;;;;;7.45;4.10;;;;;;;19.73;nan;95623.19;5075518;28;20115;-81
2023/08/14 01:50:36;;;;;;;8.07;4.35;;;;;;;19.74;nan;95617.47;5074423;28;20071;-81
2023/08/14 01:53:01;;;;;;;6.20;4.13;;;;;;;19.06;nan;95510.78;5079994;28;20039;-81
2023/08/14 01:55:27;;;;;;;6.47;4.03;;;;;;;19.68;nan;95597.25;5073758;28;20040;-81
2023/08/14 01:57:53;;;;;;;5.15;4.00;;;;;;;19.54;nan;95592.03;5075434;28;20032;-81
2023/08/14 02:00:19;;;;;;;4.60;3.88;;;;;;;19.58;nan;95641.41;5076667;28;20415;-81
2023/08/14 02:02:44;;;;;;;11.98;4.35;;;;;;;19.32;nan;95594.88;5075937;28;20178;-81
2023/08/14 02:05:10;;;;;;;9.07;4.28;;;;;;;19.61;nan;95629.19;5075424;28;20119;-81
2023/08/14 02:07:35;;;;;;;7.70;4.45;;;;;;;19.77;nan;95638.34;5075038;28;20051;-81
2023/08/14 02:10:01;;;;;;;6.22;3.90;;;;;;;19.57;nan;95612.91;5072477;28;20031;-81
2023/08/14 02:12:28;;;;;;;6.97;4.38;;;;;;;19.65;nan;95628.25;5073932;28;20028;-81
2023/08/14 02:14:54;;;;;;;6.45;4.18;;;;;;;19.57;nan;95612.91;5073920;28;20061;-81
2023/08/14 02:17:19;;;;;;;7.50;4.03;;;;;;;19.72;nan;95635.84;5074484;28;20028;-81
2023/08/14 02:19:45;;;;;;;6.18;3.75;;;;;;;19.61;nan;95618.44;5078613;28;20029;-81
2023/08/14 02:22:10;;;;;;;6.65;4.18;;;;;;;19.52;nan;95612.31;5073963;28;20044;-82
2023/08/14 02:24:36;;;;;;;5.90;4.18;;;;;;;19.46;nan;95608.94;5073238;28;20098;-81
2023/08/14 02:27:01;;;;;;;9.95;4.28;;;;;;;19.70;nan;95646.13;5072864;28;20038;-82
2023/08/14 02:29:26;;;;;;;7.03;4.30;;;;;;;19.67;nan;95659.44;5073000;28;20396;-82
2023/08/14 02:31:52;;;;;;;7.30;3.70;;;;;;;19.04;nan;95535.31;5072283;28;20136;-82
2023/08/14 02:34:41;;;;;;;8.75;3.85;;;;;;;19.82;nan;95648.16;5071813;28;20415;-82
2023/08/14 02:37:06;;;;;;;11.02;3.90;;;;;;;19.64;nan;95609.75;5060065;28;20033;-81
2023/08/14 02:39:32;;;;;;;5.22;3.80;;;;;;;19.74;nan;95625.56;5078101;28;20560;-82
2023/08/14 02:41:57;;;;;;;9.23;3.80;;;;;;;19.54;nan;95597.41;5072181;28;20044;-82
2023/08/14 02:44:23;;;;;;;5.32;3.72;;;;;;;19.80;nan;95631.53;5071974;28;20037;-82
2023/08/14 02:46:48;;;;;;;5.30;3.63;;;;;;;19.02;nan;95516.00;5073264;28;20033;-82
2023/08/14 02:49:13;;;;;;;8.90;4.28;;;;;;;19.81;nan;95627.75;5073732;28;20028;-82
2023/08/14 02:51:39;;;;;;;6.10;3.80;;;;;;;19.99;nan;95654.28;5072547;28;20048;-81
2023/08/14 02:54:04;;;;;;;8.38;3.85;;;;;;;19.74;nan;95608.63;5073921;28;20028;-81
2023/08/14 02:56:30;;;;;;;8.23;3.45;;;;;;;19.85;nan;95634.06;5074354;28;20056;-81
2023/08/14 02:58:55;;;;;;;5.57;3.67;;;;;;;19.99;nan;95654.28;5073476;28;20284;-81
2023/08/14 03:01:21;;;;;;;4.30;3.25;;;;;;;20.01;nan;95656.66;5073653;28;20033;-81
2023/08/14 03:03:46;;;;;;;8.68;3.47;;;;;;;19.88;nan;95647.69;5074246;28;20135;-81
2023/08/14 03:06:11;;;;;;;6.40;3.72;;;;;;;20.01;nan;95654.75;5074686;28;20040;-81
2023/08/14 03:08:37;;;;;;;4.45;3.13;;;;;;;19.96;nan;95640.69;5073062;28;20126;-81
2023/08/14 03:11:02;;;;;;;7.00;3.53;;;;;;;19.45;nan;95575.09;5074622;28;20045;-80
2023/08/14 03:13:28;;;;;;;5.15;3.40;;;;;;;19.99;nan;95658.88;5074454;28;20055;-80
2023/08/14 03:15:53;;;;;;;5.72;3.60;;;;;;;19.93;nan;95662.84;5074557;28;20045;-81
2023/08/14 03:18:19;;;;;;;4.60;3.45;;;;;;;19.89;nan;95643.88;5073113;28;20036;-81
2023/08/14 03:20:44;;;;;;;10.85;3.35;;;;;;;19.53;nan;95609.28;5074960;28;20155;-81
2023/08/14 03:23:09;;;;;;;4.55;3.15;;;;;;;19.78;nan;95650.69;5073212;28;20032;-81
2023/08/14 03:25:35;;;;;;;10.18;3.63;;;;;;;19.61;nan;95611.16;5073458;28;20050;-81
2023/08/14 03:28:00;;;;;;;7.43;4.03;;;;;;;19.76;nan;95626.00;5075000;28;20040;-81
2023/08/14 03:30:26;;;;;;;4.53;3.25;;;;;;;19.47;nan;95578.28;5079382;28;20058;-81
2023/08/14 03:32:51;;;;;;;8.55;3.78;;;;;;;19.13;nan;95541.47;5073036;28;20028;-81
2023/08/14 03:35:17;;;;;;;7.82;3.75;;;;;;;19.76;nan;95655.59;5074208;28;20059;-81
2023/08/14 03:37:42;;;;;;;7.03;4.15;;;;;;;19.57;nan;95623.69;5071460;28;20036;-81
2023/08/14 03:40:08;;;;;;;9.68;4.78;;;;;;;19.28;nan;95592.06;5074284;28;20037;-81
2023/08/14 03:42:34;;;;;;;11.20;4.40;;;;;;;19.36;nan;95608.50;5070906;28;20184;-80
2023/08/14 03:44:59;;;;;;;9.07;4.85;;;;;;;19.30;nan;95640.13;5076152;28;20079;-81
2023/08/14 03:47:25;;;;;;;14.48;5.75;;;;;;;19.24;nan;95636.81;5069348;28;20075;-81
2023/08/14 03:49:50;;;;;;;11.60;4.90;;;;;;;18.69;nan;95561.38;5069698;28;20032;-81
2023/08/14 03:52:15;;;;;;;9.23;5.25;;;;;;;18.99;nan;95618.78;5072447;28;20032;-81
2023/08/14 03:54:41;;;;;;;11.10;5.28;;;;;;;18.73;nan;95583.84;5071077;28;20418;-81
2023/08/14 03:57:06;;;;;;;16.38;5.95;;;;;;;19.18;nan;95642.66;5070344;28;20487;-81
2023/08/14 03:59:32;;;;;;;10.20;5.05;;;;;;;19.15;nan;95630.63;5074799;28;20041;-81
2023/08/14 04:01:57;;;;;;;8.43;5.07;;;;;;;18.99;nan;95594.59;5071833;28;20046;-82
2023/08/14 04:04:22;;;;;;;15.18;5.90;;;;;;;19.35;nan;95658.81;5072452;28;20036;-82
2023/08/14 04:06:49;;;;;;;14.38;5.05;;;;;;;19.39;nan;95658.94;5069525;28;20043;-82
2023/08/14 04:09:15;;;;;;;8.20;5.60;;;;;;;19.30;nan;95656.25;5071162;28;20062;-82
2023/08/14 04:11:40;;;;;;;10.55;5.65;;;;;;;19.13;nan;95669.72;5070547;28;20127;-82
2023/08/14 04:14:06;;;;;;;14.40;6.13;;;;;;;18.84;nan;95614.66;5075232;28;20533;-81
2023/08/14 04:16:43;;;;;;;13.32;6.20;;;;;;;19.31;nan;95667.81;5072633;28;20526;-82
2023/08/14 04:19:11;;;;;;;12.52;6.13;;;;;;;19.32;nan;95664.81;5073193;28;20145;-82
2023/08/14 04:21:37;;;;;;;22.45;6.70;;;;;;;19.27;nan;95670.34;5072405;28;20033;-82
2023/08/14 04:24:02;;;;;;;18.58;7.57;;;;;;;19.15;nan;95662.91;5073669;28;20039;-81
2023/08/14 04:26:28;;;;;;;11.02;6.65;;;;;;;19.15;nan;95668.28;5069685;28;20054;-82
2023/08/14 04:28:54;;;;;;;13.27;6.45;;;;;;;19.34;nan;95677.94;5070212;28;20043;-82
2023/08/14 04:31:20;;;;;;;14.45;7.00;;;;;;;18.09;nan;95511.03;5069269;28;20561;-82
2023/08/14 04:33:45;;;;;;;12.55;7.38;;;;;;;18.72;nan;95616.38;5065374;28;20144;-82
2023/08/14 04:36:11;;;;;;;9.15;6.80;;;;;;;19.28;nan;95693.44;5069097;28;20024;-82
2023/08/14 04:38:36;;;;;;;12.55;7.28;;;;;;;19.34;nan;95689.50;5069028;28;20123;-82
2023/08/14 04:41:01;;;;;;;11.93;7.43;;;;;;;18.99;nan;95653.75;5072038;28;20466;-81
2023/08/14 04:43:31;;;;;;;12.15;6.97;;;;;;;18.98;nan;95640.59;5070291;28;20081;-82
2023/08/14 04:45:57;;;;;;;10.48;7.30;;;;;;;18.73;nan;95591.09;5074817;28;20028;-81
2023/08/14 04:48:22;;;;;;;21.42;8.52;;;;;;;19.34;nan;95673.34;5068088;28;20509;-82
2023/08/14 04:50:48;;;;;;;17.05;8.45;;;;;;;19.29;nan;95673.53;5071018;28;20036;-82
2023/08/14 04:53:13;;;;;;;18.17;7.43;;;;;;;18.88;nan;95606.75;5070870;28;20118;-82
2023/08/14 04:55:38;;;;;;;10.45;7.53;;;;;;;19.30;nan;95703.91;5071220;28;20033;-82
2023/08/14 04:58:04;;;;;;;15.48;8.23;;;;;;;18.85;nan;95672.66;5069484;28;20051;-82
2023/08/14 05:00:29;;;;;;;21.00;7.65;;;;;;;19.18;nan;95710.66;5073429;28;20037;-82
2023/08/14 05:02:55;;;;;;;19.65;7.78;;;;;;;19.09;nan;95691.03;5073617;28;20036;-82
2023/08/14 05:05:20;;;;;;;13.00;7.20;;;;;;;18.85;nan;95636.94;5074032;28;20024;-82
2023/08/14 05:07:46;;;;;;;11.73;7.68;;;;;;;18.86;nan;95642.00;5073685;28;20070;-82
2023/08/14 05:10:11;;;;;;;21.00;7.60;;;;;;;18.91;nan;95659.09;5080541;28;20081;-82
2023/08/14 05:12:37;;;;;;;15.75;7.97;;;;;;;18.97;nan;95652.47;5075148;28;20024;-81
2023/08/14 05:15:02;;;;;;;14.50;6.97;;;;;;;18.91;nan;95640.28;5073341;28;20059;-81
2023/08/14 05:17:28;;;;;;;12.38;7.28;;;;;;;19.35;nan;95671.47;5073106;28;20108;-80
2023/08/14 05:19:53;;;;;;;11.80;6.97;;;;;;;19.53;nan;95702.66;5072676;28;20183;-80
2023/08/14 05:22:22;;;;;;;12.10;8.10;;;;;;;19.63;nan;95700.44;5072506;28;20024;-80
2023/08/14 05:24:47;;;;;;;14.38;7.22;;;;;;;19.45;nan;95663.88;5072782;28;20101;-80
2023/08/14 05:27:13;;;;;;;12.15;7.00;;;;;;;19.56;nan;95667.03;5074534;28;20032;-80
2023/08/14 05:29:38;;;;;;;11.60;6.40;;;;;;;19.54;nan;95647.72;5081145;28;20475;-80
2023/08/14 05:32:04;;;;;;;13.45;6.93;;;;;;;19.47;nan;95625.91;5078264;28;20032;-80
2023/08/14 05:34:30;;;;;;;15.50;7.05;;;;;;;19.77;nan;95667.94;5078216;28;20495;-80
2023/08/14 05:36:55;;;;;;;13.65;7.43;;;;;;;20.02;nan;95699.41;5074216;28;20044;-80
2023/08/14 05:39:21;;;;;;;16.45;7.93;;;;;;;19.81;nan;95655.44;5072980;28;20025;-80
2023/08/14 05:41:46;;;;;;;13.80;7.82;;;;;;;19.15;nan;95558.03;5073804;28;20028;-80
2023/08/14 05:44:12;;;;;;;14.85;7.28;;;;;;;20.20;nan;95705.56;5072967;28;20092;-80
2023/08/14 05:46:37;;;;;;;12.88;7.45;;;;;;;20.22;nan;95706.00;5073308;28;20028;-80
2023/08/14 05:49:03;;;;;;;14.57;7.30;;;;;;;20.16;nan;95711.88;5074612;28;20020;-80
2023/08/14 05:51:28;;;;;;;13.45;6.95;;;;;;;19.85;nan;95647.50;5097813;28;20478;-81
2023/08/14 05:53:54;;;;;;;18.67;9.13;;;;;;;20.04;nan;95659.50;5067094;28;20020;-80
2023/08/14 05:56:19;;;;;;;15.80;8.77;;;;;;;20.42;nan;95710.75;5067474;28;20432;-81
2023/08/14 05:58:45;;;;;;;18.73;8.40;;;;;;;19.85;nan;95618.69;5072043;28;20032;-80
2023/08/14 06:01:10;;;;;;;16.20;8.27;;;;;;;20.32;nan;95686.03;5079308;28;20036;-80
2023/08/14 06:03:38;;;;;;;20.17;7.70;;;;;;;20.50;nan;95701.03;5063713;28;20094;-80
2023/08/14 06:06:04;;;;;;;14.27;7.45;;;;;;;20.21;nan;95653.28;5071456;28;20028;-80
2023/08/14 06:08:29;;;;;;;14.88;7.18;;;;;;;20.51;nan;95680.28;5074208;28;20052;-79
2023/08/14 06:10:55;;;;;;;13.60;7.38;;;;;;;20.77;nan;95708.66;5073115;28;20114;-80
2023/08/14 06:13:20;;;;;;;14.95;7.38;;;;;;;20.60;nan;95670.22;5073549;28;20028;-80
2023/08/14 06:15:46;;;;;;;17.65;7.05;;;;;;;20.14;nan;95585.66;5074912;28;20143;-80
2023/08/14 06:18:12;;;;;;;15.30;7.05;;;;;;;20.97;nan;95700.97;5070549;28;20128;-81
2023/08/14 06:20:37;;;;;;;18.70;6.80;;;;;;;20.93;nan;95679.25;5072816;28;20028;-80
2023/08/14 06:23:03;;;;;;;14.02;7.07;;;;;;;20.65;nan;95633.13;5072844;28;20028;-80
2023/08/14 06:25:31;;;;;;;18.15;6.20;;;;;;;21.03;nan;95683.47;5071438;28;20036;-80
2023/08/14 06:27:57;;;;;;;23.15;6.72;;;;;;;21.16;nan;95695.91;5071054;28;20028;-80
2023/08/14 06:30:23;;;;;;;11.75;5.70;;;;;;;21.25;nan;95699.38;5073025;28;20044;-80
2023/08/14 06:32:49;;;;;;;13.55;6.00;;;;;;;21.21;nan;95681.50;5072563;28;20746;-81
2023/08/14 06:35:14;;;;;;;7.90;4.97;;;;;;;21.21;nan;95670.72;5071904;28;20069;-81
2023/08/14 06:37:40;;;;;;;11.77;5.47;;;;;;;21.11;nan;95652.97;5073190;28;20041;-80
2023/08/14 06:40:06;;;;;;;8.88;5.55;;;;;;;21.37;nan;95687.84;5072577;28;20033;-81
2023/08/14 06:42:32;;;;;;;18.50;6.35;;;;;;;21.38;nan;95684.81;5071513;28;20099;-81
2023/08/14 06:44:57;;;;;;;11.70;5.13;;;;;;;21.35;nan;95672.03;5070919;28;20037;-81
2023/08/14 06:47:23;;;;;;;11.77;4.57;;;;;;;21.02;nan;95639.53;5069954;28;20469;-81
2023/08/14 06:49:49;;;;;;;10.70;4.82;;;;;;;21.42;nan;95676.88;5074300;28;20494;-81
2023/08/14 06:52:14;;;;;;;15.18;5.50;;;;;;;21.33;nan;95665.38;5070365;28;20078;-80
2023/08/14 06:54:39;;;;;;;9.80;4.55;;;;;;;21.73;nan;95716.94;5070650;28;20048;-81
2023/08/14 06:57:05;;;;;;;13.20;4.53;;;;;;;21.41;nan;95651.81;5070869;28;20095;-81
2023/08/14 06:59:31;;;;;;;11.43;4.13;;;;;;;21.56;nan;95656.59;5069661;28;20114;-81
2023/08/14 07:01:57;;;;;;;8.98;4.82;;;;;;;21.63;nan;95661.44;5064346;28;20455;-81
2023/08/14 07:04:22;;;;;;;10.57;4.22;;;;;;;21.80;nan;95677.50;5072962;28;20036;-81
2023/08/14 07:06:48;;;;;;;6.38;4.13;;;;;;;22.02;nan;95716.06;5068141;28;20099;-82
2023/08/14 07:09:16;;;;;;;5.07;3.70;;;;;;;21.21;nan;95587.84;5054684;28;20398;-81
2023/08/14 07:11:42;;;;;;;6.60;4.13;;;;;;;21.72;nan;95664.06;5071628;28;20447;-81
2023/08/14 07:14:09;;;;;;;6.88;4.00;;;;;;;22.01;nan;95707.16;5072729;28;20028;-81
2023/08/14 07:16:35;;;;;;;15.02;4.35;;;;;;;22.00;nan;95689.38;5073066;28;20497;-81
2023/08/14 07:19:01;;;;;;;16.08;4.45;;;;;;;21.94;nan;95677.19;5069655;28;20484;-84
2023/08/14 07:21:27;;;;;;;10.63;4.72;;;;;;;21.74;nan;95640.25;5074289;28;20036;-81
2023/08/14 07:23:52;;;;;;;9.90;4.55;;;;;;;22.19;nan;95705.88;5072708;28;20045;-81
2023/08/14 07:26:18;;;;;;;7.88;4.45;;;;;;;22.27;nan;95705.00;5072241;28;20044;-81
2023/08/14 07:28:43;;;;;;;14.93;4.53;;;;;;;22.30;nan;95695.41;5073854;28;20439;-81
2023/08/14 07:31:09;;;;;;;9.30;3.83;;;;;;;22.33;nan;95690.16;5073908;28;20066;-81
2023/08/14 07:33:35;;;;;;;8.43;3.67;;;;;;;22.31;nan;95667.28;5073753;28;20032;-81
2023/08/14 07:36:02;;;;;;;6.15;3.80;;;;;;;22.64;nan;95711.25;5072163;28;20064;-81
2023/08/14 07:38:27;;;;;;;4.88;3.03;;;;;;;22.51;nan;95687.22;5072733;28;20032;-81
2023/08/14 07:40:55;;;;;;;5.32;3.05;;;;;;;22.64;nan;95713.94;5073685;28;20062;-80
2023/08/14 07:43:21;;;;;;;4.80;3.17;;;;;;;22.48;nan;95680.59;5071094;28;20117;-80
2023/08/14 07:45:47;;;;;;;6.38;2.97;;;;;;;22.57;nan;95678.56;5065418;28;20033;-82
2023/08/14 07:48:12;;;;;;;5.05;3.42;;;;;;;22.40;nan;95640.94;5071578;28;20062;-80
2023/08/14 07:50:38;;;;;;;9.02;4.22;;;;;;;22.93;nan;95706.75;5073719;28;20040;-80
2023/08/14 07:53:03;;;;;;;4.18;3.00;;;;;;;22.91;nan;95701.69;5074088;28;20076;-80
2023/08/14 07:55:29;;;;;;;12.68;4.13;;;;;;;22.91;nan;95690.88;5071374;28;20605;-81
2023/08/14 07:57:54;;;;;;;10.73;3.38;;;;;;;23.12;nan;95706.94;5054210;28;20044;-81
2023/08/14 08:00:20;;;;;;;5.85;3.35;;;;;;;22.93;nan;95658.88;5063090;28;20043;-81
2023/08/14 08:02:46;;;;;;;4.82;3.28;;;;;;;23.20;nan;95689.00;5073165;28;20537;-81
2023/08/14 08:05:11;;;;;;;7.47;3.53;;;;;;;23.49;nan;95712.34;5072486;28;20071;-80
2023/08/14 08:07:37;;;;;;;7.00;3.92;;;;;;;23.31;nan;95669.28;5071243;28;20025;-80
2023/08/14 08:10:03;;;;;;;8.05;3.95;;;;;;;23.74;nan;95719.25;5022038;28;20032;-81
2023/08/14 08:12:28;;;;;;;9.13;4.45;;;;;;;23.89;nan;95712.28;5087020;28;20392;-82
2023/08/14 08:14:55;;;;;;;13.48;5.05;;;;;;;23.86;nan;95684.00;5067314;28;20137;-82
2023/08/14 08:17:20;;;;;;;8.07;3.67;;;;;;;23.92;nan;95665.56;5071402;28;20421;-82
2023/08/14 08:19:46;;;;;;;5.90;3.38;;;;;;;24.14;nan;95687.47;5070344;28;20131;-81
2023/08/14 08:22:14;;;;;;;8.30;4.00;;;;;;;24.12;nan;95680.81;5070788;28;20490;-81
2023/08/14 08:24:40;;;;;;;14.05;3.97;;;;;;;24.28;nan;95691.69;5071124;28;20059;-80
2023/08/14 08:27:05;;;;;;;6.80;3.72;;;;;;;24.45;nan;95692.16;5071117;28;20176;-80
2023/08/14 08:29:31;;;;;;;11.50;4.60;;;;;;;24.66;nan;95693.81;5070990;28;20132;-81
2023/08/14 08:31:56;;;;;;;4.57;3.00;;;;;;;24.44;nan;95649.91;5072408;28;20043;-80
2023/08/14 08:34:21;;;;;;;9.18;3.50;;;;;;;24.62;nan;95672.03;5069553;28;20093;-81
2023/08/14 08:36:47;;;;;;;5.93;2.75;;;;;;;24.50;nan;95637.66;5069684;28;20039;-81
2023/08/14 08:39:12;;;;;;;5.68;3.28;;;;;;;24.35;nan;95622.19;5071102;28;20428;-80
2023/08/14 08:41:40;;;;;;;5.45;3.42;;;;;;;24.69;nan;95664.06;5071163;28;20028;-79
2023/08/14 08:44:09;;;;;;;8.40;3.28;;;;;;;24.73;nan;95659.50;5070699;28;20418;-80
2023/08/14 08:46:41;;;;;;;4.70;2.72;;;;;;;24.03;nan;95569.88;5070467;28;20035;-79
2023/08/14 08:49:08;;;;;;;8.90;3.80;;;;;;;24.75;nan;95697.13;5071754;28;20059;-81
2023/08/14 08:51:34;;;;;;;8.25;3.67;;;;;;;24.80;nan;95694.94;5070612;28;20034;-81
2023/08/14 08:54:01;;;;;;;8.07;3.47;;;;;;;24.43;nan;95615.81;5071371;28;20025;-80
2023/08/14 08:56:27;;;;;;;6.15;3.58;;;;;;;24.54;nan;95652.09;5070054;28;20073;-80
2023/08/14 08:58:53;;;;;;;7.45;3.45;;;;;;;24.20;nan;95596.66;5071507;28;20024;-81
2023/08/14 09:01:20;;;;;;;8.57;2.90;;;;;;;24.59;nan;95653.75;5071637;28;20025;-80
2023/08/14 09:03:46;;;;;;;5.13;3.03;;;;;;;24.54;nan;95635.06;5071845;28;20337;-80
2023/08/14 09:06:12;;;;;;;4.13;2.92;;;;;;;24.84;nan;95667.91;5069971;28;20021;-80
2023/08/14 09:08:37;;;;;;;9.23;5.28;;;;;;;24.80;nan;95672.44;5071263;28;20038;-80
2023/08/14 09:11:03;;;;;;;9.20;4.05;;;;;;;24.83;nan;95663.63;5071888;28;20343;-80
2023/08/14 09:13:29;;;;;;;5.68;2.97;;;;;;;24.70;nan;95640.47;5069988;28;20032;-80
2023/08/14 09:15:54;;;;;;;11.95;3.17;;;;;;;24.79;nan;95638.34;5070584;28;20049;-81
2023/08/14 09:18:20;;;;;;;7.45;3.70;;;;;;;24.83;nan;95648.13;5071939;28;20029;-80
2023/08/14 09:20:45;;;;;;;5.18;3.47;;;;;;;24.70;nan;95618.75;5072972;28;20085;-79
2023/08/14 09:23:14;;;;;;;7.47;3.50;;;;;;;24.80;nan;95646.13;5072591;28;20037;-80
2023/08/14 09:25:46;;;;;;;5.40;3.83;;;;;;;24.97;nan;95669.41;5072658;28;20032;-80
2023/08/14 09:28:12;;;;;;;8.48;3.17;;;;;;;24.97;nan;95663.97;5070327;28;20055;-81
2023/08/14 09:30:38;;;;;;;9.32;3.20;;;;;;;24.90;nan;95642.91;5071606;28;20032;-81
2023/08/14 09:33:08;;;;;;;5.22;2.95;;;;;;;24.83;nan;95631.84;5071628;28;20036;-82
2023/08/14 09:35:38;;;;;;;26.58;5.22;;;;;;;25.04;nan;95644.34;5071190;28;20499;-82
2023/08/14 09:38:04;;;;;;;5.65;2.95;;;;;;;25.09;nan;95658.44;5070739;28;20467;-82
2023/08/14 09:40:31;;;;;;;7.55;3.20;;;;;;;25.06;nan;95637.44;5071499;28;20134;-82
2023/08/14 09:42:57;;;;;;;4.15;2.70;;;;;;;24.88;nan;95620.72;5072791;28;20032;-82
2023/08/14 09:45:24;;;;;;;5.78;3.08;;;;;;;24.67;nan;95571.44;5073454;28;20218;-82
2023/08/14 09:47:50;;;;;;;8.32;3.15;;;;;;;25.10;nan;95627.44;5075178;28;20029;-82
2023/08/14 09:50:17;;;;;;;5.55;3.58;;;;;;;25.12;nan;95617.00;5074733;28;20032;-82
2023/08/14 09:52:43;;;;;;;9.50;3.40;;;;;;;25.32;nan;95634.91;5077369;28;20028;-81
2023/08/14 09:55:11;;;;;;;8.85;3.95;;;;;;;25.53;nan;95648.13;5077729;28;20454;-81
2023/08/14 09:57:36;;;;;;;8.60;3.05;;;;;;;25.89;nan;95632.53;5061523;28;20028;-81
2023/08/14 10:00:03;;;;;;;5.10;2.95;;;;;;;26.11;nan;95564.59;5077579;28;20024;-81
2023/08/14 10:02:31;;;;;;;8.15;3.20;;;;;;;27.34;nan;95634.09;5077631;28;20048;-81
2023/08/14 10:04:59;;;;;;;8.13;3.05;;;;;;;27.47;nan;95537.34;5078294;28;20033;-81
2023/08/14 10:07:26;;;;;;;7.10;2.65;;;;;;;28.42;nan;95559.34;5075812;28;20032;-82
2023/08/14 10:09:55;;;;;;;7.20;3.25;;;;;;;29.15;nan;95584.75;5077938;28;20119;-82
2023/08/14 10:12:28;;;;;;;9.55;3.13;;;;;;;30.16;nan;95601.13;5080313;28;20059;-82
2023/08/14 10:15:10;;;;;;;9.98;2.58;;;;;;;30.60;nan;95601.56;5078713;28;20395;-83
2023/08/14 10:17:48;;;;;;;6.38;3.75;;;;;;;31.43;nan;95625.69;5080018;28;20076;-82
2023/08/14 10:20:18;;;;;;;6.93;2.72;;;;;;;31.34;nan;95570.53;5078212;28;20040;-82
2023/08/14 10:22:45;;;;;;;8.10;2.95;;;;;;;31.64;nan;95553.59;5076361;28;20036;-82
2023/08/14 10:25:11;;;;;;;31.27;4.40;;;;;;;32.03;nan;95619.19;5076812;28;20059;-82
2023/08/14 10:27:37;;;;;;;60.45;5.70;;;;;;;32.66;nan;95628.16;5078601;28;20418;-82
2023/08/14 10:30:04;;;;;;;12.25;2.97;;;;;;;33.04;nan;95606.25;5078443;28;20100;-82
2023/08/14 10:32:30;;;;;;;14.35;2.60;;;;;;;33.52;nan;95600.66;5077608;28;20021;-83
2023/08/14 10:34:57;;;;;;;5.50;2.70;;;;;;;33.78;nan;95604.69;5074316;28;20585;-83
2023/08/14 10:37:40;;;;;;;3.85;3.00;;;;;;;33.81;nan;95568.09;5072843;28;20044;-83
2023/08/14 10:40:16;;;;;;;26.98;4.35;;;;;;;33.63;nan;95582.84;5073282;28;20040;-83
2023/08/14 10:42:55;;;;;;;7.32;2.63;;;;;;;34.10;nan;95599.53;5073858;28;20139;-83
2023/08/14 10:45:28;;;;;;;5.85;3.40;;;;;;;34.30;nan;95605.94;5057444;28;20041;-83
2023/08/14 10:47:59;;;;;;;7.50;2.80;;;;;;;34.62;nan;95601.91;5074889;28;20036;-83
2023/08/14 10:50:28;;;;;;;8.05;3.22;;;;;;;34.84;nan;95608.63;5073361;28;20033;-83
2023/08/14 10:52:55;;;;;;;5.68;3.58;;;;;;;34.82;nan;95594.50;5075123;28;20519;-83
2023/08/14 10:55:40;;;;;;;4.32;2.80;;;;;;;34.97;nan;95606.03;5072779;28;20039;-83
2023/08/14 10:58:28;;;;;;;6.30;2.95;;;;;;;35.04;nan;95597.63;5071655;28;20531;-84
2023/08/14 11:00:54;;;;;;;7.30;2.90;;;;;;;34.88;nan;95584.53;5072351;28;20071;-83
2023/08/14 11:03:22;;;;;;;7.72;2.75;;;;;;;34.71;nan;95536.78;5074253;28;20051;-82
2023/08/14 11:05:48;;;;;;;4.95;3.15;;;;;;;35.36;nan;95600.59;5072470;28;20388;-82
2023/08/14 11:08:14;;;;;;;14.25;3.38;;;;;;;34.83;nan;95511.41;5074019;28;20040;-81
2023/08/14 11:10:42;;;;;;;13.32;3.50;;;;;;;35.14;nan;95536.81;5074243;28;20040;-82
2023/08/14 11:13:08;;;;;;;3.97;2.58;;;;;;;35.44;nan;95584.69;5072823;28;20113;-82
2023/08/14 11:15:38;;;;;;;9.13;3.13;;;;;;;35.47;nan;95572.81;5072132;28;20044;-81
2023/08/14 11:18:10;;;;;;;7.77;2.70;;;;;;;34.63;nan;95512.56;5073017;28;20135;-81
2023/08/14 11:20:44;;;;;;;33.53;4.35;;;;;;;34.55;nan;95522.16;5072141;28;20044;-81
2023/08/14 11:23:10;;;;;;;15.38;2.72;;;;;;;34.34;nan;95542.53;5074485;28;20036;-81
2023/08/14 11:25:37;;;;;;;7.82;3.10;;;;;;;34.45;nan;95538.44;5073292;28;20033;-82
2023/08/14 11:28:03;;;;;;;17.85;3.92;;;;;;;34.26;nan;95535.59;5072710;28;20039;-82
2023/08/14 11:30:34;;;;;;;23.77;3.50;;;;;;;34.56;nan;95568.53;5070855;28;20033;-81
2023/08/14 11:33:04;;;;;;;5.93;2.92;;;;;;;34.58;nan;95566.13;5072469;28;20048;-81
2023/08/14 11:35:29;;;;;;;9.10;2.97;;;;;;;34.83;nan;95536.22;5071487;28;20033;-82
2023/08/14 11:37:55;;;;;;;13.35;2.90;;;;;;;35.00;nan;95534.34;5073254;28;20043;-81
2023/08/14 11:40:20;;;;;;;9.63;2.97;;;;;;;35.42;nan;95537.44;5074269;28;20033;-81
2023/08/14 11:42:46;;;;;;;38.92;4.65;;;;;;;35.68;nan;95568.84;5072012;28;20067;-81
2023/08/14 11:45:12;;;;;;;24.02;4.03;;;;;;;35.18;nan;95531.22;5073236;28;20059;-81